Time,TemperatureF,DewpointF,PressureIn,WindDirection,WindDirectionDegrees,WindSpeedMPH,WindSpeedGustMPH,Humidity,HourlyPrecipIn,Conditions,Clouds,dailyrainin,SoftwareType,DateUTC
2013-10-27 00:05:00,47.6,41.1,30.00,WSW,254,0.0,4.0,78,0.00,,,0.00,Wunderground v.1.15,2013-10-27 04:05:00,
2013-10-27 00:09:00,47.6,39.4,30.00,West,266,0.0,0.0,73,0.00,,,0.00,Wunderground v.1.15,2013-10-27 04:09:00,
2013-10-27 00:14:00,47.8,39.9,30.00,SSW,200,1.0,1.0,74,0.00,,,0.00,Wunderground v.1.15,2013-10-27 04:14:00,
2013-10-27 00:19:00,47.9,40.0,29.99,SSW,200,1.0,1.0,74,0.00,,,0.00,Wunderground v.1.15,2013-10-27 04:19:00,
2013-10-27 00:24:00,48.0,39.0,29.99,South,191,1.0,1.0,71,0.00,,,0.00,Wunderground v.1.15,2013-10-27 04:24:00,
2013-10-27 00:29:00,48.1,39.1,29.99,SSW,203,0.0,1.0,71,0.00,,,0.00,Wunderground v.1.15,2013-10-27 04:29:00,
2013-10-27 00:34:00,48.1,39.5,29.99,SSW,195,0.0,1.0,72,0.00,,,0.00,Wunderground v.1.15,2013-10-27 04:34:00,
2013-10-27 00:44:00,48.2,40.3,29.99,SSW,207,0.0,0.0,74,0.00,,,0.00,Wunderground v.1.15,2013-10-27 04:44:00,
2013-10-27 00:49:00,48.3,42.1,29.99,SSW,212,0.0,1.0,79,0.00,,,0.00,Wunderground v.1.15,2013-10-27 04:49:00,
2013-10-27 00:54:00,48.3,41.1,29.99,WSW,238,0.0,1.0,76,0.00,,,0.00,Wunderground v.1.15,2013-10-27 04:54:00,
2013-10-27 01:00:00,48.2,40.3,29.98,SSE,150,1.0,1.0,74,0.00,,,0.00,Wunderground v.1.15,2013-10-27 05:00:00,
2013-10-27 01:05:00,48.3,40.7,29.98,South,183,1.0,1.0,75,0.00,,,0.00,Wunderground v.1.15,2013-10-27 05:05:00,
2013-10-27 01:15:00,48.4,40.5,29.98,West,274,1.0,2.0,74,0.00,,,0.00,Wunderground v.1.15,2013-10-27 05:15:00,
2013-10-27 01:20:00,48.5,39.5,29.98,SSW,210,1.0,1.0,71,0.00,,,0.00,Wunderground v.1.15,2013-10-27 05:20:00,
2013-10-27 01:25:00,48.4,39.4,29.98,SSW,210,0.0,1.0,71,0.00,,,0.00,Wunderground v.1.15,2013-10-27 05:25:00,
2013-10-27 01:30:00,48.4,39.1,29.98,SW,221,0.0,0.0,70,0.00,,,0.00,Wunderground v.1.15,2013-10-27 05:30:00,
2013-10-27 01:40:00,48.1,39.1,29.98,SW,221,0.0,0.0,71,0.00,,,0.00,Wunderground v.1.15,2013-10-27 05:40:00,
2013-10-27 01:45:00,47.9,39.7,29.99,SW,233,0.0,0.0,73,0.00,,,0.00,Wunderground v.1.15,2013-10-27 05:45:00,
2013-10-27 01:50:00,47.8,40.9,29.99,WSW,238,0.0,0.0,77,0.00,,,0.00,Wunderground v.1.15,2013-10-27 05:50:00,
2013-10-27 01:55:00,47.6,41.1,29.99,WSW,238,0.0,0.0,78,0.00,,,0.00,Wunderground v.1.15,2013-10-27 05:55:00,
2013-10-27 02:00:00,47.3,41.1,29.99,WSW,238,0.0,0.0,79,0.00,,,0.00,Wunderground v.1.15,2013-10-27 06:00:00,
2013-10-27 02:10:00,46.9,40.1,29.99,WSW,238,0.0,0.0,77,0.00,,,0.00,Wunderground v.1.15,2013-10-27 06:10:00,
2013-10-27 02:15:00,46.7,40.2,29.99,WSW,238,0.0,0.0,78,0.00,,,0.00,Wunderground v.1.15,2013-10-27 06:15:00,
2013-10-27 02:20:00,46.6,39.8,29.99,WSW,238,0.0,2.0,77,0.00,,,0.00,Wunderground v.1.15,2013-10-27 06:20:00,
2013-10-27 02:25:00,46.5,40.3,29.99,WSW,238,0.0,2.0,79,0.00,,,0.00,Wunderground v.1.15,2013-10-27 06:25:00,
2013-10-27 02:35:00,46.4,40.6,29.99,SW,223,0.0,2.0,80,0.00,,,0.00,Wunderground v.1.15,2013-10-27 06:35:00,
2013-10-27 02:40:00,46.3,40.8,29.99,SW,223,0.0,1.0,81,0.00,,,0.00,Wunderground v.1.15,2013-10-27 06:40:00,
2013-10-27 02:45:00,46.2,40.7,29.99,SW,223,0.0,1.0,81,0.00,,,0.00,Wunderground v.1.15,2013-10-27 06:45:00,
2013-10-27 02:50:00,46.1,40.6,29.99,SW,223,0.0,0.0,81,0.00,,,0.00,Wunderground v.1.15,2013-10-27 06:50:00,
2013-10-27 02:55:00,46.0,40.8,29.99,SW,223,0.0,0.0,82,0.00,,,0.00,Wunderground v.1.15,2013-10-27 06:55:00,
2013-10-27 03:05:00,45.7,40.5,29.98,SW,223,0.0,0.0,82,0.00,,,0.00,Wunderground v.1.15,2013-10-27 07:05:00,
2013-10-27 03:10:00,45.5,40.3,29.98,SW,223,0.0,0.0,82,0.00,,,0.00,Wunderground v.1.15,2013-10-27 07:10:00,
2013-10-27 03:15:00,45.4,40.5,29.98,SW,223,0.0,0.0,83,0.00,,,0.00,Wunderground v.1.15,2013-10-27 07:15:00,
2013-10-27 03:20:00,45.3,40.1,29.98,SW,223,0.0,0.0,82,0.00,,,0.00,Wunderground v.1.15,2013-10-27 07:20:00,
2013-10-27 03:25:00,45.2,40.3,29.98,SW,223,0.0,0.0,83,0.00,,,0.00,Wunderground v.1.15,2013-10-27 07:25:00,
2013-10-27 03:35:00,45.2,40.7,29.98,SW,223,0.0,0.0,84,0.00,,,0.00,Wunderground v.1.15,2013-10-27 07:35:00,
2013-10-27 03:40:00,45.2,41.0,29.98,SW,223,0.0,0.0,85,0.00,,,0.00,Wunderground v.1.15,2013-10-27 07:40:00,
2013-10-27 03:45:00,45.2,41.0,29.98,SW,223,0.0,0.0,85,0.00,,,0.00,Wunderground v.1.15,2013-10-27 07:45:00,
2013-10-27 03:50:00,45.2,41.0,29.98,SW,223,0.0,0.0,85,0.00,,,0.00,Wunderground v.1.15,2013-10-27 07:50:00,
2013-10-27 04:00:00,45.0,41.1,29.98,SW,223,0.0,0.0,86,0.00,,,0.00,Wunderground v.1.15,2013-10-27 08:00:00,
2013-10-27 04:05:00,44.9,41.0,29.98,SW,223,0.0,0.0,86,0.00,,,0.00,Wunderground v.1.15,2013-10-27 08:05:00,
2013-10-27 04:10:00,44.8,41.2,29.98,SW,223,0.0,0.0,87,0.00,,,0.00,Wunderground v.1.15,2013-10-27 08:10:00,
2013-10-27 04:15:00,44.7,41.1,29.97,SW,223,0.0,0.0,87,0.00,,,0.00,Wunderground v.1.15,2013-10-27 08:15:00,
2013-10-27 04:20:00,44.6,41.0,29.97,SW,223,0.0,0.0,87,0.00,,,0.00,Wunderground v.1.15,2013-10-27 08:20:00,
2013-10-27 04:30:00,44.4,40.5,29.98,SW,223,0.0,0.0,86,0.00,,,0.00,Wunderground v.1.15,2013-10-27 08:30:00,
2013-10-27 04:35:00,44.3,40.4,29.98,SW,223,0.0,0.0,86,0.00,,,0.00,Wunderground v.1.15,2013-10-27 08:35:00,
2013-10-27 04:40:00,44.4,41.4,29.98,SW,223,0.0,0.0,89,0.00,,,0.00,Wunderground v.1.15,2013-10-27 08:40:00,
2013-10-27 04:45:00,44.4,41.4,29.97,SW,223,0.0,0.0,89,0.00,,,0.00,Wunderground v.1.15,2013-10-27 08:45:00,
2013-10-27 04:55:00,44.5,40.9,29.97,SW,223,0.0,0.0,87,0.00,,,0.00,Wunderground v.1.15,2013-10-27 08:55:00,
2013-10-27 05:00:00,44.5,41.2,29.97,SW,223,0.0,0.0,88,0.00,,,0.00,Wunderground v.1.15,2013-10-27 09:00:00,
2013-10-27 05:05:00,44.6,41.3,29.97,SW,223,0.0,0.0,88,0.00,,,0.00,Wunderground v.1.15,2013-10-27 09:05:00,
2013-10-27 05:10:00,44.5,40.9,29.97,SW,223,0.0,0.0,87,0.00,,,0.00,Wunderground v.1.15,2013-10-27 09:10:00,
2013-10-27 05:15:00,44.5,41.2,29.98,SW,223,0.0,0.0,88,0.00,,,0.00,Wunderground v.1.15,2013-10-27 09:15:00,
2013-10-27 05:25:00,44.2,40.6,29.98,SW,223,0.0,0.0,87,0.00,,,0.00,Wunderground v.1.15,2013-10-27 09:25:00,
2013-10-27 05:30:00,44.0,40.1,29.99,SW,223,0.0,0.0,86,0.00,,,0.00,Wunderground v.1.15,2013-10-27 09:30:00,
2013-10-27 05:35:00,43.8,40.2,29.99,SW,223,0.0,0.0,87,0.00,,,0.00,Wunderground v.1.15,2013-10-27 09:35:00,
2013-10-27 05:40:00,43.7,40.4,29.99,SW,223,0.0,0.0,88,0.00,,,0.00,Wunderground v.1.15,2013-10-27 09:40:00,
2013-10-27 05:45:00,43.6,40.6,29.99,SW,223,0.0,0.0,89,0.00,,,0.00,Wunderground v.1.15,2013-10-27 09:45:00,
2013-10-27 05:55:00,43.3,40.3,29.99,SW,223,0.0,0.0,89,0.00,,,0.00,Wunderground v.1.15,2013-10-27 09:55:00,
2013-10-27 06:00:00,43.1,40.1,29.99,SW,223,0.0,0.0,89,0.00,,,0.00,Wunderground v.1.15,2013-10-27 10:00:00,
2013-10-27 06:05:00,42.8,39.8,29.99,SW,223,0.0,0.0,89,0.00,,,0.00,Wunderground v.1.15,2013-10-27 10:05:00,
2013-10-27 06:10:00,42.6,39.6,29.99,SW,223,0.0,0.0,89,0.00,,,0.00,Wunderground v.1.15,2013-10-27 10:10:00,
2013-10-27 06:20:00,42.0,39.0,29.99,SW,223,0.0,0.0,89,0.00,,,0.00,Wunderground v.1.15,2013-10-27 10:20:00,
2013-10-27 06:25:00,41.8,39.1,29.99,SW,223,0.0,0.0,90,0.00,,,0.00,Wunderground v.1.15,2013-10-27 10:25:00,
2013-10-27 06:30:00,41.7,39.0,30.00,WSW,240,0.0,0.0,90,0.00,,,0.00,Wunderground v.1.15,2013-10-27 10:30:00,
2013-10-27 06:35:00,41.6,39.2,30.00,WSW,244,0.0,0.0,91,0.00,,,0.00,Wunderground v.1.15,2013-10-27 10:35:00,
2013-10-27 06:45:00,41.4,39.0,30.00,WSW,244,0.0,0.0,91,0.00,,,0.00,Wunderground v.1.15,2013-10-27 10:45:00,
2013-10-27 06:50:00,41.3,38.9,30.00,WSW,244,0.0,0.0,91,0.00,,,0.00,Wunderground v.1.15,2013-10-27 10:50:00,
2013-10-27 06:55:00,41.3,38.9,30.00,WSW,244,0.0,0.0,91,0.00,,,0.00,Wunderground v.1.15,2013-10-27 10:55:00,
2013-10-27 07:00:00,41.2,39.1,30.01,WSW,244,0.0,0.0,92,0.00,,,0.00,Wunderground v.1.15,2013-10-27 11:00:00,
2013-10-27 07:05:00,41.1,39.0,30.01,WSW,244,0.0,0.0,92,0.00,,,0.00,Wunderground v.1.15,2013-10-27 11:05:00,
2013-10-27 07:15:00,40.9,38.8,30.01,WSW,244,0.0,0.0,92,0.00,,,0.00,Wunderground v.1.15,2013-10-27 11:15:00,
2013-10-27 07:20:00,40.9,38.8,30.01,WSW,244,0.0,0.0,92,0.00,,,0.00,Wunderground v.1.15,2013-10-27 11:20:00,
2013-10-27 07:25:00,40.8,38.7,30.01,WSW,244,0.0,0.0,92,0.00,,,0.00,Wunderground v.1.15,2013-10-27 11:25:00,
2013-10-27 07:30:00,40.6,38.5,30.01,WSW,244,0.0,0.0,92,0.00,,,0.00,Wunderground v.1.15,2013-10-27 11:30:00,
2013-10-27 07:35:00,40.5,38.4,30.01,WSW,244,0.0,0.0,92,0.00,,,0.00,Wunderground v.1.15,2013-10-27 11:35:00,
2013-10-27 07:45:00,40.3,38.2,30.01,WSW,244,0.0,0.0,92,0.00,,,0.00,Wunderground v.1.15,2013-10-27 11:45:00,
2013-10-27 07:55:00,40.2,38.1,30.01,WSW,244,0.0,0.0,92,0.00,,,0.00,Wunderground v.1.15,2013-10-27 11:55:00,
2013-10-27 08:00:00,40.1,38.0,30.02,WSW,244,0.0,0.0,92,0.00,,,0.00,Wunderground v.1.15,2013-10-27 12:00:00,
2013-10-27 08:10:00,40.0,38.1,30.02,WSW,244,0.0,0.0,93,0.00,,,0.00,Wunderground v.1.15,2013-10-27 12:10:00,
2013-10-27 08:15:00,40.1,38.2,30.03,WSW,244,0.0,0.0,93,0.00,,,0.00,Wunderground v.1.15,2013-10-27 12:15:00,
2013-10-27 08:25:00,40.2,38.6,30.03,WSW,244,0.0,0.0,94,0.00,,,0.00,Wunderground v.1.15,2013-10-27 12:25:00,
2013-10-27 08:30:00,40.3,38.7,30.04,WSW,244,0.0,0.0,94,0.00,,,0.00,Wunderground v.1.15,2013-10-27 12:30:00,
2013-10-27 08:35:00,40.4,38.8,30.04,WSW,244,0.0,0.0,94,0.00,,,0.00,Wunderground v.1.15,2013-10-27 12:35:00,
2013-10-27 08:40:00,40.5,38.9,30.04,WSW,244,0.0,0.0,94,0.00,,,0.00,Wunderground v.1.15,2013-10-27 12:40:00,
2013-10-27 08:45:00,40.7,39.4,30.04,WSW,244,0.0,0.0,95,0.00,,,0.00,Wunderground v.1.15,2013-10-27 12:45:00,
2013-10-27 08:55:00,41.4,40.1,30.04,WSW,244,0.0,0.0,95,0.00,,,0.00,Wunderground v.1.15,2013-10-27 12:55:00,
2013-10-27 09:00:00,41.6,40.3,30.05,WSW,244,0.0,0.0,95,0.00,,,0.00,Wunderground v.1.15,2013-10-27 13:00:00,
2013-10-27 09:05:00,41.9,40.6,30.05,WSW,244,0.0,0.0,95,0.00,,,0.00,Wunderground v.1.15,2013-10-27 13:05:00,
2013-10-27 09:10:00,42.3,41.0,30.05,WSW,251,0.0,0.0,95,0.00,,,0.00,Wunderground v.1.15,2013-10-27 13:10:00,
2013-10-27 09:15:00,42.8,41.5,30.05,West,269,0.0,0.0,95,0.00,,,0.00,Wunderground v.1.15,2013-10-27 13:15:00,
2013-10-27 09:25:00,43.6,42.3,30.05,NNW,327,0.0,0.0,95,0.00,,,0.00,Wunderground v.1.15,2013-10-27 13:25:00,
2013-10-27 09:30:00,44.1,42.5,30.06,NNW,327,0.0,0.0,94,0.00,,,0.00,Wunderground v.1.15,2013-10-27 13:30:00,
2013-10-27 09:35:00,44.5,42.6,30.06,NNE,15,0.0,1.0,93,0.00,,,0.00,Wunderground v.1.15,2013-10-27 13:35:00,
2013-10-27 09:45:00,45.6,43.4,30.06,North,1,1.0,1.0,92,0.00,,,0.00,Wunderground v.1.15,2013-10-27 13:45:00,
2013-10-27 09:50:00,46.2,43.4,30.06,West,263,1.0,1.0,90,0.00,,,0.00,Wunderground v.1.15,2013-10-27 13:50:00,
2013-10-27 09:55:00,47.0,43.9,30.06,West,264,1.0,1.0,89,0.00,,,0.00,Wunderground v.1.15,2013-10-27 13:55:00,
2013-10-27 10:00:00,47.9,43.6,30.05,West,265,1.0,1.0,85,0.00,,,0.00,Wunderground v.1.15,2013-10-27 14:00:00,
2013-10-27 10:05:00,48.8,43.5,30.05,WSW,253,1.0,1.0,82,0.00,,,0.00,Wunderground v.1.15,2013-10-27 14:05:00,
2013-10-27 10:15:00,51.1,43.1,30.05,WNW,283,1.0,1.0,74,0.00,,,0.00,Wunderground v.1.15,2013-10-27 14:15:00,
2013-10-27 10:20:00,52.4,42.9,30.05,NW,326,1.0,1.0,70,0.00,,,0.00,Wunderground v.1.15,2013-10-27 14:20:00,
2013-10-27 10:25:00,53.3,43.8,30.05,WNW,302,1.0,1.0,70,0.00,,,0.00,Wunderground v.1.15,2013-10-27 14:25:00,
2013-10-27 10:30:00,54.0,42.9,30.05,NNW,327,1.0,2.0,66,0.00,,,0.00,Wunderground v.1.15,2013-10-27 14:30:00,
2013-10-27 10:40:00,55.3,43.7,30.05,NW,309,2.0,2.0,65,0.00,,,0.00,Wunderground v.1.15,2013-10-27 14:40:00,
2013-10-27 10:45:00,55.7,42.5,30.05,NW,326,1.0,2.0,61,0.00,,,0.00,Wunderground v.1.15,2013-10-27 14:45:00,
2013-10-27 10:50:00,56.2,42.9,30.05,NNW,343,2.0,2.0,61,0.00,,,0.00,Wunderground v.1.15,2013-10-27 14:50:00,
2013-10-27 10:55:00,56.6,42.9,30.05,North,356,1.0,2.0,60,0.00,,,0.00,Wunderground v.1.15,2013-10-27 14:55:00,
2013-10-27 11:00:00,57.0,42.8,30.05,NW,323,1.0,1.0,59,0.00,,,0.00,Wunderground v.1.15,2013-10-27 15:00:00,
2013-10-27 11:10:00,57.8,41.7,30.05,NNW,340,2.0,2.0,55,0.00,,,0.00,Wunderground v.1.15,2013-10-27 15:10:00,
2013-10-27 11:15:00,58.0,42.4,30.05,NW,306,2.0,2.0,56,0.00,,,0.00,Wunderground v.1.15,2013-10-27 15:15:00,
2013-10-27 11:20:00,58.1,42.5,30.05,West,278,1.0,2.0,56,0.00,,,0.00,Wunderground v.1.15,2013-10-27 15:20:00,
2013-10-27 11:25:00,58.4,41.8,30.05,North,359,2.0,3.0,54,0.00,,,0.00,Wunderground v.1.15,2013-10-27 15:25:00,
2013-10-27 11:30:00,58.6,41.0,30.05,WSW,255,2.0,2.0,52,0.00,,,0.00,Wunderground v.1.15,2013-10-27 15:30:00,
2013-10-27 11:40:00,59.0,42.8,30.05,WNW,282,1.0,5.0,55,0.00,,,0.00,Wunderground v.1.15,2013-10-27 15:40:00,
2013-10-27 11:45:00,59.4,41.3,30.05,West,270,2.0,5.0,51,0.00,,,0.00,Wunderground v.1.15,2013-10-27 15:45:00,
2013-10-27 11:50:00,59.7,41.5,30.05,North,359,2.0,2.0,51,0.00,,,0.00,Wunderground v.1.15,2013-10-27 15:50:00,
2013-10-27 11:55:00,59.9,42.2,30.05,WNW,300,1.0,2.0,52,0.00,,,0.00,Wunderground v.1.15,2013-10-27 15:55:00,
2013-10-27 12:05:00,60.7,41.4,30.04,NW,314,2.0,5.0,49,0.00,,,0.00,Wunderground v.1.15,2013-10-27 16:05:00,
2013-10-27 12:15:00,60.9,41.6,30.04,North,1,1.0,5.0,49,0.00,,,0.00,Wunderground v.1.15,2013-10-27 16:15:00,
2013-10-27 12:25:00,60.9,41.1,30.04,WSW,251,1.0,5.0,48,0.00,,,0.00,Wunderground v.1.15,2013-10-27 16:25:00,
2013-10-27 12:30:00,61.2,41.9,30.03,NNW,341,1.0,5.0,49,0.00,,,0.00,Wunderground v.1.15,2013-10-27 16:30:00,
2013-10-27 12:35:00,62.0,41.5,30.03,WNW,283,2.0,5.0,47,0.00,,,0.00,Wunderground v.1.15,2013-10-27 16:35:00,
2013-10-27 12:45:00,63.0,41.9,30.02,West,278,1.0,5.0,46,0.00,,,0.00,Wunderground v.1.15,2013-10-27 16:45:00,
2013-10-27 12:50:00,63.3,40.4,30.02,South,176,1.0,1.0,43,0.00,,,0.00,Wunderground v.1.15,2013-10-27 16:50:00,
2013-10-27 12:55:00,63.3,42.2,30.02,WNW,298,0.0,5.0,46,0.00,,,0.00,Wunderground v.1.15,2013-10-27 16:55:00,
2013-10-27 13:00:00,62.9,40.6,30.01,West,267,1.0,5.0,44,0.00,,,0.00,Wunderground v.1.15,2013-10-27 17:00:00,
2013-10-27 13:05:00,62.8,42.3,30.01,SSW,203,1.0,5.0,47,0.00,,,0.00,Wunderground v.1.15,2013-10-27 17:05:00,
2013-10-27 13:15:00,63.0,41.3,30.01,West,273,1.0,5.0,45,0.00,,,0.00,Wunderground v.1.15,2013-10-27 17:15:00,
2013-10-27 13:20:00,62.9,41.8,30.01,WNW,295,1.0,5.0,46,0.00,,,0.00,Wunderground v.1.15,2013-10-27 17:20:00,
2013-10-27 13:25:00,62.6,40.4,30.01,NW,305,1.0,5.0,44,0.00,,,0.00,Wunderground v.1.15,2013-10-27 17:25:00,
2013-10-27 13:30:00,62.4,40.8,30.00,NW,305,1.0,1.0,45,0.00,,,0.00,Wunderground v.1.15,2013-10-27 17:30:00,
2013-10-27 13:35:00,62.0,41.5,30.00,SW,219,0.0,5.0,47,0.00,,,0.00,Wunderground v.1.15,2013-10-27 17:35:00,
2013-10-27 13:45:00,61.6,42.2,30.00,East,85,0.0,5.0,49,0.00,,,0.00,Wunderground v.1.15,2013-10-27 17:45:00,
2013-10-27 13:50:00,61.8,40.8,30.00,NW,325,1.0,5.0,46,0.00,,,0.00,Wunderground v.1.15,2013-10-27 17:50:00,
2013-10-27 13:55:00,62.0,41.0,30.00,SW,234,1.0,5.0,46,0.00,,,0.00,Wunderground v.1.15,2013-10-27 17:55:00,
2013-10-27 14:00:00,62.0,43.1,30.00,SW,214,1.0,5.0,50,0.00,,,0.00,Wunderground v.1.15,2013-10-27 18:00:00,
2013-10-27 14:05:00,61.9,41.4,30.00,SSW,199,1.0,5.0,47,0.00,,,0.00,Wunderground v.1.15,2013-10-27 18:05:00,
2013-10-27 14:15:00,61.9,40.3,30.00,SSW,210,1.0,5.0,45,0.00,,,0.00,Wunderground v.1.15,2013-10-27 18:15:00,
2013-10-27 14:20:00,62.1,41.6,30.00,WNW,290,1.0,1.0,47,0.00,,,0.00,Wunderground v.1.15,2013-10-27 18:20:00,
2013-10-27 14:25:00,62.2,41.7,30.00,WNW,290,1.0,2.0,47,0.00,,,0.00,Wunderground v.1.15,2013-10-27 18:25:00,
2013-10-27 14:30:00,62.2,41.7,29.99,NW,305,1.0,5.0,47,0.00,,,0.00,Wunderground v.1.15,2013-10-27 18:30:00,
2013-10-27 14:35:00,62.2,40.0,29.99,WNW,297,1.0,5.0,44,0.00,,,0.00,Wunderground v.1.15,2013-10-27 18:35:00,
2013-10-27 14:45:00,62.7,41.0,29.99,WSW,240,2.0,5.0,45,0.00,,,0.00,Wunderground v.1.15,2013-10-27 18:45:00,
2013-10-27 14:50:00,62.9,41.2,29.99,NNW,340,2.0,5.0,45,0.00,,,0.00,Wunderground v.1.15,2013-10-27 18:50:00,
2013-10-27 14:55:00,63.0,40.7,29.99,NW,317,2.0,5.0,44,0.00,,,0.00,Wunderground v.1.15,2013-10-27 18:55:00,
2013-10-27 15:05:00,63.2,40.3,29.99,WNW,297,1.0,5.0,43,0.00,,,0.00,Wunderground v.1.15,2013-10-27 19:05:00,
2013-10-27 15:10:00,63.4,39.9,29.99,WNW,302,1.0,5.0,42,0.00,,,0.00,Wunderground v.1.15,2013-10-27 19:10:00,
2013-10-27 15:15:00,63.5,40.6,29.98,NW,305,2.0,5.0,43,0.00,,,0.00,Wunderground v.1.15,2013-10-27 19:15:00,
2013-10-27 15:20:00,63.4,39.9,29.98,NW,309,2.0,2.0,42,0.00,,,0.00,Wunderground v.1.15,2013-10-27 19:20:00,
2013-10-27 15:30:00,63.3,41.6,29.98,WNW,302,1.0,1.0,45,0.00,,,0.00,Wunderground v.1.15,2013-10-27 19:30:00,
2013-10-27 15:35:00,63.2,42.6,29.98,West,259,1.0,5.0,47,0.00,,,0.00,Wunderground v.1.15,2013-10-27 19:35:00,
2013-10-27 15:40:00,63.3,42.7,29.98,NW,319,1.0,5.0,47,0.00,,,0.00,Wunderground v.1.15,2013-10-27 19:40:00,
2013-10-27 15:45:00,63.2,40.9,29.98,NW,319,1.0,5.0,44,0.00,,,0.00,Wunderground v.1.15,2013-10-27 19:45:00,
2013-10-27 15:50:00,63.1,41.4,29.98,West,273,1.0,5.0,45,0.00,,,0.00,Wunderground v.1.15,2013-10-27 19:50:00,
2013-10-27 16:00:00,63.1,42.5,29.98,NW,312,0.0,5.0,47,0.00,,,0.00,Wunderground v.1.15,2013-10-27 20:00:00,
2013-10-27 16:05:00,63.1,42.0,29.98,WSW,253,1.0,5.0,46,0.00,,,0.00,Wunderground v.1.15,2013-10-27 20:05:00,
2013-10-27 16:10:00,63.1,44.7,29.98,South,189,1.0,5.0,51,0.00,,,0.00,Wunderground v.1.15,2013-10-27 20:10:00,
2013-10-27 16:15:00,62.9,44.5,29.98,WNW,302,1.0,5.0,51,0.00,,,0.00,Wunderground v.1.15,2013-10-27 20:15:00,
2013-10-27 16:25:00,62.7,42.2,29.98,WSW,252,1.0,2.0,47,0.00,,,0.00,Wunderground v.1.15,2013-10-27 20:25:00,
2013-10-27 16:30:00,62.6,43.2,29.98,NW,308,0.0,5.0,49,0.00,,,0.00,Wunderground v.1.15,2013-10-27 20:30:00,
2013-10-27 16:40:00,62.3,43.9,29.98,WNW,300,1.0,1.0,51,0.00,,,0.00,Wunderground v.1.15,2013-10-27 20:40:00,
2013-10-27 16:45:00,62.3,43.4,29.98,WSW,257,0.0,5.0,50,0.00,,,0.00,Wunderground v.1.15,2013-10-27 20:45:00,
2013-10-27 16:55:00,62.1,44.8,29.98,NW,306,0.0,5.0,53,0.00,,,0.00,Wunderground v.1.15,2013-10-27 20:55:00,
2013-10-27 17:00:00,62.0,44.2,29.98,WNW,290,0.0,5.0,52,0.00,,,0.00,Wunderground v.1.15,2013-10-27 21:00:00,
2013-10-27 17:05:00,61.8,44.5,29.98,WNW,290,0.0,5.0,53,0.00,,,0.00,Wunderground v.1.15,2013-10-27 21:05:00,
2013-10-27 17:15:00,61.2,44.9,29.98,WNW,290,0.0,5.0,55,0.00,,,0.00,Wunderground v.1.15,2013-10-27 21:15:00,
2013-10-27 17:20:00,60.8,44.5,29.98,WNW,290,0.0,5.0,55,0.00,,,0.00,Wunderground v.1.15,2013-10-27 21:20:00,
2013-10-27 17:25:00,60.5,44.2,29.98,WNW,290,0.0,5.0,55,0.00,,,0.00,Wunderground v.1.15,2013-10-27 21:25:00,
2013-10-27 17:30:00,60.2,44.9,29.98,WNW,290,0.0,5.0,57,0.00,,,0.00,Wunderground v.1.15,2013-10-27 21:30:00,
2013-10-27 17:35:00,59.8,45.4,29.98,WNW,290,0.0,5.0,59,0.00,,,0.00,Wunderground v.1.15,2013-10-27 21:35:00,
2013-10-27 17:45:00,59.1,46.1,29.99,WNW,290,0.0,5.0,62,0.00,,,0.00,Wunderground v.1.15,2013-10-27 21:45:00,
2013-10-27 17:50:00,58.8,46.2,29.99,WNW,290,0.0,5.0,63,0.00,,,0.00,Wunderground v.1.15,2013-10-27 21:50:00,
2013-10-27 17:55:00,58.5,46.8,29.99,WNW,290,0.0,5.0,65,0.00,,,0.00,Wunderground v.1.15,2013-10-27 21:55:00,
2013-10-27 18:00:00,58.1,47.2,29.99,WNW,290,0.0,5.0,67,0.00,,,0.00,Wunderground v.1.15,2013-10-27 22:00:00,
2013-10-27 18:10:00,57.4,47.7,29.99,WNW,290,0.0,5.0,70,0.00,,,0.00,Wunderground v.1.15,2013-10-27 22:10:00,
2013-10-27 18:15:00,57.0,47.7,29.99,WNW,290,0.0,5.0,71,0.00,,,0.00,Wunderground v.1.15,2013-10-27 22:15:00,
2013-10-27 18:20:00,56.6,47.7,29.99,WNW,290,0.0,5.0,72,0.00,,,0.00,Wunderground v.1.15,2013-10-27 22:20:00,
2013-10-27 18:25:00,56.2,47.7,29.99,WNW,290,0.0,5.0,73,0.00,,,0.00,Wunderground v.1.15,2013-10-27 22:25:00,
2013-10-27 18:35:00,55.4,47.2,30.00,WNW,290,0.0,5.0,74,0.00,,,0.00,Wunderground v.1.15,2013-10-27 22:35:00,
2013-10-27 18:40:00,55.0,47.6,30.00,WNW,290,0.0,5.0,76,0.00,,,0.00,Wunderground v.1.15,2013-10-27 22:40:00,
2013-10-27 18:45:00,54.6,47.9,30.00,WNW,290,0.0,5.0,78,0.00,,,0.00,Wunderground v.1.15,2013-10-27 22:45:00,
2013-10-27 18:50:00,54.2,47.5,30.00,WNW,290,0.0,5.0,78,0.00,,,0.00,Wunderground v.1.15,2013-10-27 22:50:00,
2013-10-27 18:55:00,53.8,47.4,30.00,WNW,290,0.0,5.0,79,0.00,,,0.00,Wunderground v.1.15,2013-10-27 22:55:00,
2013-10-27 19:05:00,53.0,47.0,30.01,WNW,290,0.0,5.0,80,0.00,,,0.00,Wunderground v.1.15,2013-10-27 23:05:00,
2013-10-27 19:10:00,52.7,47.0,30.01,WNW,290,0.0,5.0,81,0.00,,,0.00,Wunderground v.1.15,2013-10-27 23:10:00,
2013-10-27 19:15:00,52.3,46.6,30.02,WNW,290,0.0,5.0,81,0.00,,,0.00,Wunderground v.1.15,2013-10-27 23:15:00,
2013-10-27 19:20:00,51.9,46.6,30.02,WNW,290,0.0,5.0,82,0.00,,,0.00,Wunderground v.1.15,2013-10-27 23:20:00,
2013-10-27 19:30:00,51.2,46.2,30.02,WNW,290,0.0,5.0,83,0.00,,,0.00,Wunderground v.1.15,2013-10-27 23:30:00,
2013-10-27 19:35:00,50.9,45.9,30.02,WNW,290,0.0,5.0,83,0.00,,,0.00,Wunderground v.1.15,2013-10-27 23:35:00,
2013-10-27 19:40:00,50.6,45.9,30.02,WNW,290,0.0,5.0,84,0.00,,,0.00,Wunderground v.1.15,2013-10-27 23:40:00,
2013-10-27 19:45:00,50.3,46.0,30.02,WNW,290,0.0,5.0,85,0.00,,,0.00,Wunderground v.1.15,2013-10-27 23:45:00,
2013-10-27 19:55:00,49.6,45.6,30.02,WNW,290,0.0,5.0,86,0.00,,,0.00,Wunderground v.1.15,2013-10-27 23:55:00,
2013-10-27 20:00:00,49.3,45.3,30.03,WNW,290,0.0,5.0,86,0.00,,,0.00,Wunderground v.1.15,2013-10-28 00:00:00,
2013-10-27 20:05:00,49.0,45.0,30.03,WNW,290,0.0,5.0,86,0.00,,,0.00,Wunderground v.1.15,2013-10-28 00:05:00,
2013-10-27 20:10:00,48.8,45.1,30.03,WNW,290,0.0,5.0,87,0.00,,,0.00,Wunderground v.1.15,2013-10-28 00:10:00,
2013-10-27 20:15:00,48.6,44.9,30.04,WNW,290,0.0,5.0,87,0.00,,,0.00,Wunderground v.1.15,2013-10-28 00:15:00,
2013-10-27 20:25:00,48.1,44.7,30.04,WNW,290,0.0,5.0,88,0.00,,,0.00,Wunderground v.1.15,2013-10-28 00:25:00,
2013-10-27 20:30:00,47.9,44.5,30.04,WNW,290,0.0,5.0,88,0.00,,,0.00,Wunderground v.1.15,2013-10-28 00:30:00,
2013-10-27 20:35:00,47.7,44.6,30.04,WNW,290,0.0,5.0,89,0.00,,,0.00,Wunderground v.1.15,2013-10-28 00:35:00,
2013-10-27 20:40:00,47.5,44.4,30.04,WNW,290,0.0,5.0,89,0.00,,,0.00,Wunderground v.1.15,2013-10-28 00:40:00,
2013-10-27 20:45:00,47.3,44.2,30.04,WNW,290,0.0,5.0,89,0.00,,,0.00,Wunderground v.1.15,2013-10-28 00:45:00,
2013-10-27 20:55:00,46.8,44.0,30.04,WNW,290,0.0,5.0,90,0.00,,,0.00,Wunderground v.1.15,2013-10-28 00:55:00,
2013-10-27 21:00:00,46.6,44.1,30.04,WNW,290,0.0,5.0,91,0.00,,,0.00,Wunderground v.1.15,2013-10-28 01:00:00,
2013-10-27 21:10:00,46.3,43.8,30.04,WNW,290,0.0,5.0,91,0.00,,,0.00,Wunderground v.1.15,2013-10-28 01:10:00,
2013-10-27 21:15:00,46.1,43.6,30.04,WNW,290,0.0,5.0,91,0.00,,,0.00,Wunderground v.1.15,2013-10-28 01:15:00,
2013-10-27 21:20:00,45.9,43.4,30.04,WNW,290,0.0,5.0,91,0.00,,,0.00,Wunderground v.1.15,2013-10-28 01:20:00,
2013-10-27 21:30:00,45.6,43.4,30.04,WNW,290,0.0,5.0,92,0.00,,,0.00,Wunderground v.1.15,2013-10-28 01:30:00,
2013-10-27 21:35:00,45.4,43.2,30.04,WNW,290,0.0,5.0,92,0.00,,,0.00,Wunderground v.1.15,2013-10-28 01:35:00,
2013-10-27 21:40:00,45.3,43.1,30.04,WNW,290,0.0,5.0,92,0.00,,,0.00,Wunderground v.1.15,2013-10-28 01:40:00,
2013-10-27 21:45:00,45.1,42.9,30.05,WNW,290,0.0,5.0,92,0.00,,,0.00,Wunderground v.1.15,2013-10-28 01:45:00,
2013-10-27 21:50:00,45.0,42.8,30.05,WNW,290,0.0,5.0,92,0.00,,,0.00,Wunderground v.1.15,2013-10-28 01:50:00,
2013-10-27 22:00:00,44.8,42.6,30.05,WNW,290,0.0,5.0,92,0.00,,,0.00,Wunderground v.1.15,2013-10-28 02:00:00,
2013-10-27 22:05:00,44.7,42.5,30.05,WNW,290,0.0,5.0,92,0.00,,,0.00,Wunderground v.1.15,2013-10-28 02:05:00,
2013-10-27 22:10:00,44.6,42.4,30.05,WNW,290,0.0,5.0,92,0.00,,,0.00,Wunderground v.1.15,2013-10-28 02:10:00,
2013-10-27 22:15:00,44.4,42.5,30.06,WNW,290,0.0,5.0,93,0.00,,,0.00,Wunderground v.1.15,2013-10-28 02:15:00,
2013-10-27 22:20:00,44.3,42.4,30.06,WNW,290,0.0,5.0,93,0.00,,,0.00,Wunderground v.1.15,2013-10-28 02:20:00,
2013-10-27 22:30:00,44.1,42.2,30.06,WNW,290,0.0,5.0,93,0.00,,,0.00,Wunderground v.1.15,2013-10-28 02:30:00,
2013-10-27 22:35:00,44.0,42.1,30.06,WNW,290,0.0,5.0,93,0.00,,,0.00,Wunderground v.1.15,2013-10-28 02:35:00,
2013-10-27 22:40:00,43.9,42.0,30.06,WNW,290,0.0,5.0,93,0.00,,,0.00,Wunderground v.1.15,2013-10-28 02:40:00,
2013-10-27 22:45:00,43.8,41.9,30.06,WNW,290,0.0,5.0,93,0.00,,,0.00,Wunderground v.1.15,2013-10-28 02:45:00,
2013-10-27 22:55:00,43.6,41.7,30.06,WNW,290,0.0,5.0,93,0.00,,,0.00,Wunderground v.1.15,2013-10-28 02:55:00,
2013-10-27 23:00:00,43.6,41.7,30.05,WNW,290,0.0,5.0,93,0.00,,,0.00,Wunderground v.1.15,2013-10-28 03:00:00,
2013-10-27 23:05:00,43.5,41.6,30.05,WNW,290,0.0,5.0,93,0.00,,,0.00,Wunderground v.1.15,2013-10-28 03:05:00,
2013-10-27 23:10:00,43.4,41.8,30.05,WNW,290,0.0,5.0,94,0.00,,,0.00,Wunderground v.1.15,2013-10-28 03:10:00,
2013-10-27 23:20:00,43.2,41.6,30.06,WNW,290,0.0,5.0,94,0.00,,,0.00,Wunderground v.1.15,2013-10-28 03:20:00,
2013-10-27 23:25:00,43.1,41.5,30.06,WNW,290,0.0,5.0,94,0.00,,,0.00,Wunderground v.1.15,2013-10-28 03:25:00,
2013-10-27 23:30:00,43.1,41.5,30.06,WNW,290,0.0,5.0,94,0.00,,,0.00,Wunderground v.1.15,2013-10-28 03:30:00,
2013-10-27 23:35:00,43.0,41.4,30.06,WNW,290,0.0,5.0,94,0.00,,,0.00,Wunderground v.1.15,2013-10-28 03:35:00,
2013-10-27 23:40:00,42.9,41.3,30.06,WNW,290,0.0,5.0,94,0.00,,,0.00,Wunderground v.1.15,2013-10-28 03:40:00,
2013-10-27 23:50:00,42.8,41.2,30.06,WNW,290,0.0,5.0,94,0.00,,,0.00,Wunderground v.1.15,2013-10-28 03:50:00,
2013-10-27 23:55:00,42.7,41.1,30.06,WNW,290,0.0,5.0,94,0.00,,,0.00,Wunderground v.1.15,2013-10-28 03:55:00,